sensor_id;sensor_type;location;lat;lon;timestamp;P1;durP1;ratioP1;P2;durP2;ratioP2
1154;SDS011;566;48.414;9.118;2023-08-06T00:00:05;7.68;;;5.55;;
1154;SDS011;566;48.414;9.118;2023-08-06T00:02:32;7.88;;;5.38;;
1154;SDS011;566;48.414;9.118;2023-08-06T00:05:00;6.72;;;4.70;;
1154;SDS011;566;48.414;9.118;2023-08-06T00:07:26;6.55;;;4.78;;
1154;SDS011;566;48.414;9.118;2023-08-06T00:09:51;7.40;;;4.20;;
1154;SDS011;566;48.414;9.118;2023-08-06T00:12:17;6.78;;;3.83;;
1154;SDS011;566;48.414;9.118;2023-08-06T00:14:43;6.85;;;4.32;;
1154;SDS011;566;48.414;9.118;2023-08-06T00:17:09;6.60;;;4.05;;
1154;SDS011;566;48.414;9.118;2023-08-06T00:19:34;7.22;;;3.33;;
1154;SDS011;566;48.414;9.118;2023-08-06T00:22:00;5.30;;;2.83;;
1154;SDS011;566;48.414;9.118;2023-08-06T00:24:27;5.80;;;2.90;;
1154;SDS011;566;48.414;9.118;2023-08-06T00:26:52;7.03;;;2.90;;
1154;SDS011;566;48.414;9.118;2023-08-06T00:29:18;6.20;;;2.70;;
1154;SDS011;566;48.414;9.118;2023-08-06T00:31:44;4.82;;;2.30;;
1154;SDS011;566;48.414;9.118;2023-08-06T00:34:09;6.30;;;2.53;;
1154;SDS011;566;48.414;9.118;2023-08-06T00:36:35;5.85;;;2.80;;
1154;SDS011;566;48.414;9.118;2023-08-06T00:39:00;4.30;;;2.10;;
1154;SDS011;566;48.414;9.118;2023-08-06T00:41:27;5.68;;;2.72;;
1154;SDS011;566;48.414;9.118;2023-08-06T00:43:53;4.80;;;2.35;;
1154;SDS011;566;48.414;9.118;2023-08-06T00:46:18;6.82;;;2.65;;
1154;SDS011;566;48.414;9.118;2023-08-06T00:48:44;4.90;;;2.28;;
1154;SDS011;566;48.414;9.118;2023-08-06T00:51:10;6.68;;;2.70;;
1154;SDS011;566;48.414;9.118;2023-08-06T00:53:37;8.15;;;3.17;;
1154;SDS011;566;48.414;9.118;2023-08-06T00:56:04;6.13;;;2.60;;
1154;SDS011;566;48.414;9.118;2023-08-06T00:58:32;5.68;;;2.60;;
1154;SDS011;566;48.414;9.118;2023-08-06T01:01:01;5.70;;;3.05;;
1154;SDS011;566;48.414;9.118;2023-08-06T01:03:27;6.40;;;2.83;;
1154;SDS011;566;48.414;9.118;2023-08-06T01:05:53;7.32;;;3.13;;
1154;SDS011;566;48.414;9.118;2023-08-06T01:29:44;8.07;;;2.30;;
1154;SDS011;566;48.414;9.118;2023-08-06T01:35:46;6.55;;;2.53;;
1154;SDS011;566;48.414;9.118;2023-08-06T01:42:37;7.70;;;2.65;;
1154;SDS011;566;48.414;9.118;2023-08-06T03:51:12;5.32;;;1.80;;
1154;SDS011;566;48.414;9.118;2023-08-06T03:53:47;4.80;;;1.90;;
1154;SDS011;566;48.414;9.118;2023-08-06T03:56:13;6.47;;;2.05;;
1154;SDS011;566;48.414;9.118;2023-08-06T03:58:40;5.97;;;1.98;;
1154;SDS011;566;48.414;9.118;2023-08-06T04:01:06;6.63;;;1.98;;
1154;SDS011;566;48.414;9.118;2023-08-06T04:03:31;6.03;;;2.10;;
1154;SDS011;566;48.414;9.118;2023-08-06T04:05:57;7.38;;;2.22;;
1154;SDS011;566;48.414;9.118;2023-08-06T04:08:22;9.02;;;2.90;;
1154;SDS011;566;48.414;9.118;2023-08-06T04:10:51;10.13;;;2.40;;
1154;SDS011;566;48.414;9.118;2023-08-06T04:13:17;8.18;;;3.10;;
1154;SDS011;566;48.414;9.118;2023-08-06T04:15:44;6.05;;;2.00;;
1154;SDS011;566;48.414;9.118;2023-08-06T04:18:15;8.05;;;2.30;;
1154;SDS011;566;48.414;9.118;2023-08-06T04:20:47;7.35;;;2.30;;
1154;SDS011;566;48.414;9.118;2023-08-06T04:23:14;6.55;;;1.88;;
1154;SDS011;566;48.414;9.118;2023-08-06T04:25:40;4.90;;;2.15;;
1154;SDS011;566;48.414;9.118;2023-08-06T04:28:06;4.28;;;1.77;;
1154;SDS011;566;48.414;9.118;2023-08-06T04:30:32;4.68;;;1.70;;
1154;SDS011;566;48.414;9.118;2023-08-06T04:33:01;4.45;;;1.50;;
1154;SDS011;566;48.414;9.118;2023-08-06T04:35:27;5.53;;;1.27;;
1154;SDS011;566;48.414;9.118;2023-08-06T04:37:53;4.07;;;1.48;;
1154;SDS011;566;48.414;9.118;2023-08-06T04:40:18;3.85;;;1.30;;
1154;SDS011;566;48.414;9.118;2023-08-06T04:42:44;5.15;;;1.75;;
1154;SDS011;566;48.414;9.118;2023-08-06T04:45:09;6.35;;;1.95;;
1154;SDS011;566;48.414;9.118;2023-08-06T04:47:41;7.93;;;2.63;;
1154;SDS011;566;48.414;9.118;2023-08-06T04:50:07;4.53;;;1.38;;
1154;SDS011;566;48.414;9.118;2023-08-06T04:52:33;5.75;;;1.60;;
1154;SDS011;566;48.414;9.118;2023-08-06T04:54:58;5.80;;;1.95;;
1154;SDS011;566;48.414;9.118;2023-08-06T04:57:24;4.90;;;1.70;;
1154;SDS011;566;48.414;9.118;2023-08-06T04:59:50;4.00;;;1.40;;
1154;SDS011;566;48.414;9.118;2023-08-06T05:02:16;3.55;;;1.35;;
1154;SDS011;566;48.414;9.118;2023-08-06T05:04:41;4.07;;;1.25;;
1154;SDS011;566;48.414;9.118;2023-08-06T05:07:07;4.18;;;1.20;;
1154;SDS011;566;48.414;9.118;2023-08-06T05:09:33;3.50;;;1.05;;
1154;SDS011;566;48.414;9.118;2023-08-06T05:12:00;3.70;;;1.42;;
1154;SDS011;566;48.414;9.118;2023-08-06T05:14:27;2.80;;;1.05;;
1154;SDS011;566;48.414;9.118;2023-08-06T05:16:52;2.20;;;1.10;;
1154;SDS011;566;48.414;9.118;2023-08-06T05:19:18;2.63;;;1.17;;
1154;SDS011;566;48.414;9.118;2023-08-06T05:21:44;2.92;;;0.88;;
1154;SDS011;566;48.414;9.118;2023-08-06T05:24:09;2.65;;;0.90;;
1154;SDS011;566;48.414;9.118;2023-08-06T05:26:38;2.55;;;1.10;;
1154;SDS011;566;48.414;9.118;2023-08-06T05:29:04;2.97;;;0.90;;
1154;SDS011;566;48.414;9.118;2023-08-06T05:31:29;3.78;;;1.30;;
1154;SDS011;566;48.414;9.118;2023-08-06T05:33:55;1.70;;;0.80;;
1154;SDS011;566;48.414;9.118;2023-08-06T05:36:20;3.22;;;1.30;;
1154;SDS011;566;48.414;9.118;2023-08-06T05:38:46;3.83;;;1.17;;
1154;SDS011;566;48.414;9.118;2023-08-06T05:41:12;3.47;;;1.00;;
1154;SDS011;566;48.414;9.118;2023-08-06T05:43:38;3.10;;;1.00;;
1154;SDS011;566;48.414;9.118;2023-08-06T05:46:09;2.47;;;0.98;;
1154;SDS011;566;48.414;9.118;2023-08-06T05:48:35;4.75;;;1.00;;
1154;SDS011;566;48.414;9.118;2023-08-06T05:51:01;3.72;;;0.80;;
1154;SDS011;566;48.414;9.118;2023-08-06T05:53:26;2.25;;;0.95;;
1154;SDS011;566;48.414;9.118;2023-08-06T05:55:52;4.00;;;1.10;;
1154;SDS011;566;48.414;9.118;2023-08-06T05:58:20;3.55;;;0.80;;
1154;SDS011;566;48.414;9.118;2023-08-06T06:00:45;2.75;;;1.00;;
1154;SDS011;566;48.414;9.118;2023-08-06T06:03:11;3.22;;;1.20;;
1154;SDS011;566;48.414;9.118;2023-08-06T06:05:37;3.50;;;1.20;;
1154;SDS011;566;48.414;9.118;2023-08-06T06:08:04;4.90;;;1.40;;
1154;SDS011;566;48.414;9.118;2023-08-06T06:10:29;3.28;;;1.02;;
1154;SDS011;566;48.414;9.118;2023-08-06T06:12:55;3.47;;;1.00;;
1154;SDS011;566;48.414;9.118;2023-08-06T06:15:21;6.10;;;1.40;;
1154;SDS011;566;48.414;9.118;2023-08-06T06:17:54;1.33;;;0.70;;
1154;SDS011;566;48.414;9.118;2023-08-06T06:20:20;3.47;;;0.80;;
1154;SDS011;566;48.414;9.118;2023-08-06T06:23:09;1.65;;;0.77;;
1154;SDS011;566;48.414;9.118;2023-08-06T06:35:48;1.65;;;0.70;;
1154;SDS011;566;48.414;9.118;2023-08-06T08:37:51;1.85;;;0.63;;
1154;SDS011;566;48.414;9.118;2023-08-06T08:44:18;0.60;;;0.40;;
1154;SDS011;566;48.414;9.118;2023-08-06T09:21:56;0.90;;;0.50;;
1154;SDS011;566;48.414;9.118;2023-08-06T09:34:31;1.70;;;0.90;;
1154;SDS011;566;48.414;9.118;2023-08-06T09:36:57;1.25;;;0.70;;
1154;SDS011;566;48.414;9.118;2023-08-06T09:39:29;0.75;;;0.60;;
1154;SDS011;566;48.414;9.118;2023-08-06T09:48:40;0.68;;;0.60;;
1154;SDS011;566;48.414;9.118;2023-08-06T09:51:09;1.67;;;0.80;;
1154;SDS011;566;48.414;9.118;2023-08-06T09:53:38;0.73;;;0.50;;
1154;SDS011;566;48.414;9.118;2023-08-06T09:56:05;1.50;;;0.80;;
1154;SDS011;566;48.414;9.118;2023-08-06T09:58:32;0.75;;;0.52;;
1154;SDS011;566;48.414;9.118;2023-08-06T10:00:58;0.93;;;0.50;;
1154;SDS011;566;48.414;9.118;2023-08-06T10:03:25;0.77;;;0.50;;
1154;SDS011;566;48.414;9.118;2023-08-06T10:05:52;1.58;;;0.60;;
1154;SDS011;566;48.414;9.118;2023-08-06T10:08:18;1.17;;;0.60;;
1154;SDS011;566;48.414;9.118;2023-08-06T10:10:43;1.80;;;0.63;;
1154;SDS011;566;48.414;9.118;2023-08-06T10:13:10;1.27;;;0.60;;
1154;SDS011;566;48.414;9.118;2023-08-06T10:15:38;2.83;;;1.20;;
1154;SDS011;566;48.414;9.118;2023-08-06T10:18:04;2.40;;;1.00;;
1154;SDS011;566;48.414;9.118;2023-08-06T10:20:35;1.20;;;0.70;;
1154;SDS011;566;48.414;9.118;2023-08-06T10:23:01;8.57;;;3.58;;
1154;SDS011;566;48.414;9.118;2023-08-06T10:25:32;3.42;;;1.52;;
1154;SDS011;566;48.414;9.118;2023-08-06T10:27:59;4.22;;;1.77;;
1154;SDS011;566;48.414;9.118;2023-08-06T10:30:26;1.52;;;0.80;;
1154;SDS011;566;48.414;9.118;2023-08-06T10:32:54;0.50;;;0.50;;
1154;SDS011;566;48.414;9.118;2023-08-06T10:35:34;1.33;;;0.60;;
1154;SDS011;566;48.414;9.118;2023-08-06T10:38:18;1.30;;;0.88;;
1154;SDS011;566;48.414;9.118;2023-08-06T10:43:26;1.55;;;0.85;;
1154;SDS011;566;48.414;9.118;2023-08-06T10:46:01;1.33;;;0.73;;
1154;SDS011;566;48.414;9.118;2023-08-06T10:48:38;1.42;;;0.60;;
1154;SDS011;566;48.414;9.118;2023-08-06T10:51:09;1.38;;;0.80;;
1154;SDS011;566;48.414;9.118;2023-08-06T10:53:36;1.00;;;0.60;;
1154;SDS011;566;48.414;9.118;2023-08-06T10:56:10;1.73;;;0.80;;
1154;SDS011;566;48.414;9.118;2023-08-06T10:58:45;1.02;;;0.60;;
1154;SDS011;566;48.414;9.118;2023-08-06T11:01:11;1.05;;;0.70;;
1154;SDS011;566;48.414;9.118;2023-08-06T11:03:37;1.45;;;0.60;;
1154;SDS011;566;48.414;9.118;2023-08-06T11:06:04;0.63;;;0.50;;
1154;SDS011;566;48.414;9.118;2023-08-06T11:08:35;1.38;;;0.70;;
1154;SDS011;566;48.414;9.118;2023-08-06T11:13:35;0.60;;;0.52;;
1154;SDS011;566;48.414;9.118;2023-08-06T11:16:02;1.15;;;0.60;;
1154;SDS011;566;48.414;9.118;2023-08-06T11:18:31;0.65;;;0.60;;
1154;SDS011;566;48.414;9.118;2023-08-06T11:21:01;0.80;;;0.60;;
1154;SDS011;566;48.414;9.118;2023-08-06T11:23:27;1.30;;;0.65;;
1154;SDS011;566;48.414;9.118;2023-08-06T11:25:54;1.08;;;0.60;;
1154;SDS011;566;48.414;9.118;2023-08-06T11:28:20;0.57;;;0.50;;
1154;SDS011;566;48.414;9.118;2023-08-06T11:30:47;1.15;;;0.60;;
1154;SDS011;566;48.414;9.118;2023-08-06T11:33:13;0.88;;;0.50;;
1154;SDS011;566;48.414;9.118;2023-08-06T11:35:38;1.05;;;0.70;;
1154;SDS011;566;48.414;9.118;2023-08-06T11:38:05;0.80;;;0.60;;
1154;SDS011;566;48.414;9.118;2023-08-06T11:40:35;1.30;;;0.50;;
1154;SDS011;566;48.414;9.118;2023-08-06T11:43:00;1.50;;;0.80;;
1154;SDS011;566;48.414;9.118;2023-08-06T11:45:26;3.03;;;0.70;;
1154;SDS011;566;48.414;9.118;2023-08-06T11:47:55;1.23;;;0.70;;
1154;SDS011;566;48.414;9.118;2023-08-06T11:50:26;0.68;;;0.50;;
1154;SDS011;566;48.414;9.118;2023-08-06T11:52:55;1.55;;;0.60;;
1154;SDS011;566;48.414;9.118;2023-08-06T11:55:23;1.13;;;0.60;;
1154;SDS011;566;48.414;9.118;2023-08-06T11:57:50;0.68;;;0.60;;
1154;SDS011;566;48.414;9.118;2023-08-06T12:00:19;0.93;;;0.60;;
1154;SDS011;566;48.414;9.118;2023-08-06T12:02:47;0.45;;;0.40;;
1154;SDS011;566;48.414;9.118;2023-08-06T12:05:16;0.68;;;0.50;;
1154;SDS011;566;48.414;9.118;2023-08-06T12:07:46;0.68;;;0.43;;
1154;SDS011;566;48.414;9.118;2023-08-06T12:10:13;2.90;;;0.75;;
1154;SDS011;566;48.414;9.118;2023-08-06T12:12:40;1.15;;;0.70;;
1154;SDS011;566;48.414;9.118;2023-08-06T12:15:06;1.10;;;0.70;;
1154;SDS011;566;48.414;9.118;2023-08-06T12:17:33;2.00;;;0.90;;
1154;SDS011;566;48.414;9.118;2023-08-06T12:20:00;1.67;;;0.80;;
1154;SDS011;566;48.414;9.118;2023-08-06T12:22:26;2.53;;;1.10;;
1154;SDS011;566;48.414;9.118;2023-08-06T12:24:52;3.60;;;1.58;;
1154;SDS011;566;48.414;9.118;2023-08-06T12:27:17;4.95;;;1.70;;
1154;SDS011;566;48.414;9.118;2023-08-06T12:29:44;3.05;;;1.50;;
1154;SDS011;566;48.414;9.118;2023-08-06T12:32:12;4.43;;;2.10;;
1154;SDS011;566;48.414;9.118;2023-08-06T12:34:40;3.83;;;1.80;;
1154;SDS011;566;48.414;9.118;2023-08-06T12:37:07;4.30;;;2.00;;
1154;SDS011;566;48.414;9.118;2023-08-06T12:39:33;4.20;;;2.03;;
1154;SDS011;566;48.414;9.118;2023-08-06T12:42:00;4.53;;;1.70;;
1154;SDS011;566;48.414;9.118;2023-08-06T12:44:26;3.80;;;1.65;;
1154;SDS011;566;48.414;9.118;2023-08-06T12:46:52;3.33;;;1.45;;
1154;SDS011;566;48.414;9.118;2023-08-06T12:49:18;3.90;;;1.98;;
1154;SDS011;566;48.414;9.118;2023-08-06T12:51:46;3.95;;;1.92;;
1154;SDS011;566;48.414;9.118;2023-08-06T12:54:12;3.55;;;1.90;;
1154;SDS011;566;48.414;9.118;2023-08-06T12:56:37;3.72;;;1.83;;
1154;SDS011;566;48.414;9.118;2023-08-06T12:59:03;3.38;;;1.60;;
1154;SDS011;566;48.414;9.118;2023-08-06T13:01:28;2.35;;;1.30;;
1154;SDS011;566;48.414;9.118;2023-08-06T13:03:54;3.42;;;1.50;;
1154;SDS011;566;48.414;9.118;2023-08-06T13:06:20;3.05;;;1.55;;
1154;SDS011;566;48.414;9.118;2023-08-06T13:08:45;4.10;;;1.58;;
1154;SDS011;566;48.414;9.118;2023-08-06T13:11:11;5.25;;;1.60;;
1154;SDS011;566;48.414;9.118;2023-08-06T13:13:36;3.10;;;1.52;;
1154;SDS011;566;48.414;9.118;2023-08-06T13:16:19;4.57;;;1.40;;
1154;SDS011;566;48.414;9.118;2023-08-06T13:18:50;2.55;;;1.20;;
1154;SDS011;566;48.414;9.118;2023-08-06T13:42:25;2.42;;;1.20;;
1154;SDS011;566;48.414;9.118;2023-08-06T14:05:12;1.65;;;0.68;;
1154;SDS011;566;48.414;9.118;2023-08-06T14:11:42;1.45;;;0.73;;
1154;SDS011;566;48.414;9.118;2023-08-06T14:38:33;1.10;;;0.60;;
1154;SDS011;566;48.414;9.118;2023-08-06T14:40:59;1.80;;;0.80;;
1154;SDS011;566;48.414;9.118;2023-08-06T14:43:33;1.60;;;0.80;;
1154;SDS011;566;48.414;9.118;2023-08-06T14:46:20;2.10;;;0.90;;
1154;SDS011;566;48.414;9.118;2023-08-06T14:48:54;2.95;;;0.80;;
1154;SDS011;566;48.414;9.118;2023-08-06T14:51:21;2.42;;;0.80;;
1154;SDS011;566;48.414;9.118;2023-08-06T14:53:48;1.65;;;0.80;;
1154;SDS011;566;48.414;9.118;2023-08-06T14:56:13;1.38;;;0.90;;
1154;SDS011;566;48.414;9.118;2023-08-06T14:58:39;1.92;;;0.70;;
1154;SDS011;566;48.414;9.118;2023-08-06T15:01:08;2.15;;;1.10;;
1154;SDS011;566;48.414;9.118;2023-08-06T15:06:12;2.60;;;0.80;;
1154;SDS011;566;48.414;9.118;2023-08-06T15:08:43;1.00;;;0.70;;
1154;SDS011;566;48.414;9.118;2023-08-06T15:11:35;1.92;;;0.80;;
1154;SDS011;566;48.414;9.118;2023-08-06T15:17:57;3.17;;;1.10;;
1154;SDS011;566;48.414;9.118;2023-08-06T15:21:01;4.10;;;1.15;;
1154;SDS011;566;48.414;9.118;2023-08-06T15:26:05;2.47;;;1.10;;
1154;SDS011;566;48.414;9.118;2023-08-06T15:28:36;2.10;;;0.95;;
1154;SDS011;566;48.414;9.118;2023-08-06T15:31:02;4.60;;;1.48;;
1154;SDS011;566;48.414;9.118;2023-08-06T15:33:33;3.50;;;1.00;;
1154;SDS011;566;48.414;9.118;2023-08-06T15:35:58;2.25;;;1.00;;
1154;SDS011;566;48.414;9.118;2023-08-06T15:38:53;3.22;;;1.10;;
1154;SDS011;566;48.414;9.118;2023-08-06T15:41:21;2.25;;;1.10;;
1154;SDS011;566;48.414;9.118;2023-08-06T15:43:46;6.90;;;1.58;;
1154;SDS011;566;48.414;9.118;2023-08-06T15:46:12;2.58;;;1.10;;
1154;SDS011;566;48.414;9.118;2023-08-06T15:48:38;3.55;;;1.70;;
1154;SDS011;566;48.414;9.118;2023-08-06T15:51:04;3.13;;;1.40;;
1154;SDS011;566;48.414;9.118;2023-08-06T15:53:30;5.90;;;1.20;;
1154;SDS011;566;48.414;9.118;2023-08-06T15:56:05;4.60;;;1.27;;
1154;SDS011;566;48.414;9.118;2023-08-06T15:58:31;2.17;;;0.95;;
1154;SDS011;566;48.414;9.118;2023-08-06T16:00:57;2.28;;;1.00;;
1154;SDS011;566;48.414;9.118;2023-08-06T16:03:25;1.73;;;0.93;;
1154;SDS011;566;48.414;9.118;2023-08-06T16:05:51;2.28;;;0.90;;
1154;SDS011;566;48.414;9.118;2023-08-06T16:08:20;4.88;;;1.20;;
1154;SDS011;566;48.414;9.118;2023-08-06T16:11:10;2.08;;;1.08;;
1154;SDS011;566;48.414;9.118;2023-08-06T16:13:35;3.50;;;1.13;;
1154;SDS011;566;48.414;9.118;2023-08-06T16:16:08;3.80;;;1.60;;
1154;SDS011;566;48.414;9.118;2023-08-06T16:18:38;4.95;;;1.77;;
1154;SDS011;566;48.414;9.118;2023-08-06T16:21:03;7.18;;;2.20;;
1154;SDS011;566;48.414;9.118;2023-08-06T16:23:29;5.55;;;2.50;;
1154;SDS011;566;48.414;9.118;2023-08-06T16:25:57;5.10;;;2.00;;
1154;SDS011;566;48.414;9.118;2023-08-06T16:28:23;4.68;;;2.40;;
1154;SDS011;566;48.414;9.118;2023-08-06T16:30:49;4.43;;;2.13;;
1154;SDS011;566;48.414;9.118;2023-08-06T16:33:15;4.70;;;1.90;;
1154;SDS011;566;48.414;9.118;2023-08-06T16:35:41;4.30;;;1.50;;
1154;SDS011;566;48.414;9.118;2023-08-06T16:38:07;6.57;;;2.00;;
1154;SDS011;566;48.414;9.118;2023-08-06T16:40:33;5.88;;;2.05;;
1154;SDS011;566;48.414;9.118;2023-08-06T16:42:59;3.78;;;1.90;;
1154;SDS011;566;48.414;9.118;2023-08-06T16:45:24;3.92;;;1.90;;
1154;SDS011;566;48.414;9.118;2023-08-06T16:47:50;5.10;;;1.65;;
1154;SDS011;566;48.414;9.118;2023-08-06T16:50:15;4.60;;;1.83;;
1154;SDS011;566;48.414;9.118;2023-08-06T16:52:44;3.28;;;1.52;;
1154;SDS011;566;48.414;9.118;2023-08-06T16:55:10;3.55;;;1.85;;
1154;SDS011;566;48.414;9.118;2023-08-06T16:57:35;3.13;;;1.30;;
1154;SDS011;566;48.414;9.118;2023-08-06T17:00:01;3.55;;;1.48;;
1154;SDS011;566;48.414;9.118;2023-08-06T17:02:26;4.75;;;2.00;;
1154;SDS011;566;48.414;9.118;2023-08-06T17:04:52;3.92;;;1.63;;
1154;SDS011;566;48.414;9.118;2023-08-06T17:07:17;4.53;;;2.05;;
1154;SDS011;566;48.414;9.118;2023-08-06T17:09:44;3.67;;;1.75;;
1154;SDS011;566;48.414;9.118;2023-08-06T17:12:15;3.65;;;1.77;;
1154;SDS011;566;48.414;9.118;2023-08-06T17:14:45;3.63;;;1.70;;
1154;SDS011;566;48.414;9.118;2023-08-06T17:17:14;4.25;;;2.33;;
1154;SDS011;566;48.414;9.118;2023-08-06T17:19:41;4.03;;;1.60;;
1154;SDS011;566;48.414;9.118;2023-08-06T17:22:08;3.80;;;1.63;;
1154;SDS011;566;48.414;9.118;2023-08-06T17:24:36;4.50;;;1.85;;
1154;SDS011;566;48.414;9.118;2023-08-06T17:27:02;4.28;;;1.60;;
1154;SDS011;566;48.414;9.118;2023-08-06T17:29:28;3.60;;;1.50;;
1154;SDS011;566;48.414;9.118;2023-08-06T17:31:54;6.97;;;2.17;;
1154;SDS011;566;48.414;9.118;2023-08-06T17:34:20;4.65;;;2.05;;
1154;SDS011;566;48.414;9.118;2023-08-06T17:36:46;4.90;;;2.15;;
1154;SDS011;566;48.414;9.118;2023-08-06T17:39:11;5.03;;;2.25;;
1154;SDS011;566;48.414;9.118;2023-08-06T17:41:37;5.45;;;2.10;;
1154;SDS011;566;48.414;9.118;2023-08-06T17:44:09;5.78;;;2.58;;
1154;SDS011;566;48.414;9.118;2023-08-06T17:46:35;5.03;;;1.90;;
1154;SDS011;566;48.414;9.118;2023-08-06T17:49:04;3.55;;;1.73;;
1154;SDS011;566;48.414;9.118;2023-08-06T17:51:32;6.07;;;2.20;;
1154;SDS011;566;48.414;9.118;2023-08-06T17:54:01;5.38;;;2.05;;
1154;SDS011;566;48.414;9.118;2023-08-06T17:56:38;4.50;;;1.95;;
1154;SDS011;566;48.414;9.118;2023-08-06T17:59:03;4.68;;;1.70;;
1154;SDS011;566;48.414;9.118;2023-08-06T18:01:29;4.70;;;1.80;;
1154;SDS011;566;48.414;9.118;2023-08-06T18:03:55;5.57;;;2.40;;
1154;SDS011;566;48.414;9.118;2023-08-06T18:06:23;4.78;;;1.88;;
1154;SDS011;566;48.414;9.118;2023-08-06T18:08:51;4.82;;;1.88;;
1154;SDS011;566;48.414;9.118;2023-08-06T18:14:35;4.15;;;1.80;;
1154;SDS011;566;48.414;9.118;2023-08-06T18:17:03;4.75;;;2.05;;
1154;SDS011;566;48.414;9.118;2023-08-06T18:19:33;4.95;;;1.70;;
1154;SDS011;566;48.414;9.118;2023-08-06T18:22:04;5.70;;;2.30;;
1154;SDS011;566;48.414;9.118;2023-08-06T18:24:40;3.28;;;1.70;;
1154;SDS011;566;48.414;9.118;2023-08-06T18:27:26;5.00;;;1.85;;
1154;SDS011;566;48.414;9.118;2023-08-06T18:29:54;6.32;;;2.25;;
1154;SDS011;566;48.414;9.118;2023-08-06T18:32:24;4.40;;;2.00;;
1154;SDS011;566;48.414;9.118;2023-08-06T18:35:20;5.40;;;1.95;;
1154;SDS011;566;48.414;9.118;2023-08-06T18:37:47;3.70;;;1.80;;
1154;SDS011;566;48.414;9.118;2023-08-06T18:40:22;5.68;;;2.05;;
1154;SDS011;566;48.414;9.118;2023-08-06T18:42:50;4.45;;;2.22;;
1154;SDS011;566;48.414;9.118;2023-08-06T18:45:27;4.53;;;2.00;;
1154;SDS011;566;48.414;9.118;2023-08-06T18:47:54;6.65;;;1.95;;
1154;SDS011;566;48.414;9.118;2023-08-06T18:50:23;7.30;;;2.00;;
1154;SDS011;566;48.414;9.118;2023-08-06T18:59:20;4.50;;;2.33;;
1154;SDS011;566;48.414;9.118;2023-08-06T19:01:55;5.72;;;2.63;;
1154;SDS011;566;48.414;9.118;2023-08-06T19:04:21;6.70;;;2.13;;
1154;SDS011;566;48.414;9.118;2023-08-06T19:06:49;4.00;;;2.00;;
1154;SDS011;566;48.414;9.118;2023-08-06T19:09:15;6.65;;;2.03;;
1154;SDS011;566;48.414;9.118;2023-08-06T19:11:44;7.95;;;2.60;;
1154;SDS011;566;48.414;9.118;2023-08-06T19:14:09;4.78;;;2.30;;
1154;SDS011;566;48.414;9.118;2023-08-06T19:16:38;5.05;;;2.20;;
1154;SDS011;566;48.414;9.118;2023-08-06T19:19:10;5.38;;;2.42;;
1154;SDS011;566;48.414;9.118;2023-08-06T19:21:37;7.13;;;2.60;;
1154;SDS011;566;48.414;9.118;2023-08-06T19:24:02;4.35;;;2.13;;
1154;SDS011;566;48.414;9.118;2023-08-06T19:29:34;6.25;;;2.70;;
1154;SDS011;566;48.414;9.118;2023-08-06T19:32:00;6.32;;;2.30;;
1154;SDS011;566;48.414;9.118;2023-08-06T19:34:26;7.43;;;2.40;;
1154;SDS011;566;48.414;9.118;2023-08-06T19:39:48;6.40;;;2.40;;
1154;SDS011;566;48.414;9.118;2023-08-06T19:42:16;6.70;;;2.47;;
1154;SDS011;566;48.414;9.118;2023-08-06T19:45:00;5.68;;;2.75;;
1154;SDS011;566;48.414;9.118;2023-08-06T19:47:26;7.32;;;2.25;;
1154;SDS011;566;48.414;9.118;2023-08-06T19:49:58;6.70;;;2.55;;
1154;SDS011;566;48.414;9.118;2023-08-06T19:58:54;7.32;;;2.60;;
1154;SDS011;566;48.414;9.118;2023-08-06T20:02:14;6.28;;;2.63;;
1154;SDS011;566;48.414;9.118;2023-08-06T20:05:20;16.13;;;9.55;;
1154;SDS011;566;48.414;9.118;2023-08-06T20:08:25;5.38;;;2.28;;
1154;SDS011;566;48.414;9.118;2023-08-06T20:11:22;4.45;;;1.80;;
1154;SDS011;566;48.414;9.118;2023-08-06T20:14:57;5.63;;;2.05;;
1154;SDS011;566;48.414;9.118;2023-08-06T20:29:08;3.58;;;1.70;;
1154;SDS011;566;48.414;9.118;2023-08-06T20:35:48;6.75;;;2.22;;
1154;SDS011;566;48.414;9.118;2023-08-06T20:41:55;5.93;;;2.00;;
1154;SDS011;566;48.414;9.118;2023-08-06T20:48:22;4.90;;;2.08;;
1154;SDS011;566;48.414;9.118;2023-08-06T21:11:06;4.93;;;2.30;;
1154;SDS011;566;48.414;9.118;2023-08-06T21:13:33;4.53;;;2.20;;
1154;SDS011;566;48.414;9.118;2023-08-06T21:16:03;8.13;;;2.80;;
1154;SDS011;566;48.414;9.118;2023-08-06T21:18:33;4.47;;;2.20;;
1154;SDS011;566;48.414;9.118;2023-08-06T21:21:00;6.57;;;2.20;;
1154;SDS011;566;48.414;9.118;2023-08-06T21:23:26;5.82;;;2.45;;
1154;SDS011;566;48.414;9.118;2023-08-06T21:26:04;6.90;;;2.25;;
1154;SDS011;566;48.414;9.118;2023-08-06T21:35:32;5.57;;;2.55;;
1154;SDS011;566;48.414;9.118;2023-08-06T21:37:57;4.30;;;2.25;;
1154;SDS011;566;48.414;9.118;2023-08-06T21:40:23;6.93;;;2.60;;
1154;SDS011;566;48.414;9.118;2023-08-06T21:42:48;5.95;;;2.53;;
1154;SDS011;566;48.414;9.118;2023-08-06T21:45:14;4.35;;;2.20;;
1154;SDS011;566;48.414;9.118;2023-08-06T21:47:40;7.95;;;2.50;;
1154;SDS011;566;48.414;9.118;2023-08-06T21:50:05;6.97;;;2.30;;
1154;SDS011;566;48.414;9.118;2023-08-06T21:52:31;6.43;;;2.50;;
1154;SDS011;566;48.414;9.118;2023-08-06T21:54:57;5.55;;;2.25;;
1154;SDS011;566;48.414;9.118;2023-08-06T21:57:22;5.63;;;2.45;;
1154;SDS011;566;48.414;9.118;2023-08-06T21:59:48;4.75;;;2.20;;
1154;SDS011;566;48.414;9.118;2023-08-06T22:02:13;5.88;;;2.50;;
1154;SDS011;566;48.414;9.118;2023-08-06T22:04:39;5.95;;;2.50;;
1154;SDS011;566;48.414;9.118;2023-08-06T22:07:05;4.18;;;2.13;;
1154;SDS011;566;48.414;9.118;2023-08-06T22:09:30;5.57;;;2.97;;
1154;SDS011;566;48.414;9.118;2023-08-06T22:11:56;6.30;;;2.50;;
1154;SDS011;566;48.414;9.118;2023-08-06T22:14:21;7.50;;;2.67;;
1154;SDS011;566;48.414;9.118;2023-08-06T22:16:47;5.85;;;2.63;;
1154;SDS011;566;48.414;9.118;2023-08-06T22:19:13;5.07;;;2.78;;
1154;SDS011;566;48.414;9.118;2023-08-06T22:21:38;5.47;;;2.30;;
1154;SDS011;566;48.414;9.118;2023-08-06T22:24:04;6.22;;;2.50;;
1154;SDS011;566;48.414;9.118;2023-08-06T22:26:30;5.13;;;2.60;;
1154;SDS011;566;48.414;9.118;2023-08-06T22:28:55;5.90;;;2.50;;
1154;SDS011;566;48.414;9.118;2023-08-06T22:31:21;4.53;;;2.28;;
1154;SDS011;566;48.414;9.118;2023-08-06T22:33:46;5.57;;;2.20;;
1154;SDS011;566;48.414;9.118;2023-08-06T22:36:12;8.70;;;2.45;;
1154;SDS011;566;48.414;9.118;2023-08-06T22:38:37;4.60;;;2.25;;
1154;SDS011;566;48.414;9.118;2023-08-06T22:41:06;5.05;;;2.60;;
1154;SDS011;566;48.414;9.118;2023-08-06T22:43:32;5.47;;;2.40;;
1154;SDS011;566;48.414;9.118;2023-08-06T22:45:58;6.68;;;2.65;;
1154;SDS011;566;48.414;9.118;2023-08-06T22:48:24;7.38;;;2.83;;
1154;SDS011;566;48.414;9.118;2023-08-06T22:50:50;4.75;;;2.70;;
1154;SDS011;566;48.414;9.118;2023-08-06T22:53:15;6.07;;;2.22;;
1154;SDS011;566;48.414;9.118;2023-08-06T22:55:41;6.25;;;2.65;;
1154;SDS011;566;48.414;9.118;2023-08-06T22:58:06;7.18;;;2.40;;
1154;SDS011;566;48.414;9.118;2023-08-06T23:00:32;6.13;;;2.30;;
1154;SDS011;566;48.414;9.118;2023-08-06T23:02:59;6.65;;;2.35;;
1154;SDS011;566;48.414;9.118;2023-08-06T23:05:24;5.30;;;2.33;;
1154;SDS011;566;48.414;9.118;2023-08-06T23:07:50;6.45;;;2.28;;
1154;SDS011;566;48.414;9.118;2023-08-06T23:10:15;5.03;;;2.47;;
1154;SDS011;566;48.414;9.118;2023-08-06T23:12:41;5.03;;;2.30;;
1154;SDS011;566;48.414;9.118;2023-08-06T23:15:06;4.75;;;2.20;;
1154;SDS011;566;48.414;9.118;2023-08-06T23:17:32;6.32;;;2.17;;
1154;SDS011;566;48.414;9.118;2023-08-06T23:19:58;5.13;;;2.05;;
1154;SDS011;566;48.414;9.118;2023-08-06T23:22:24;4.80;;;2.15;;
1154;SDS011;566;48.414;9.118;2023-08-06T23:24:50;6.53;;;2.30;;
1154;SDS011;566;48.414;9.118;2023-08-06T23:27:15;5.35;;;2.40;;
1154;SDS011;566;48.414;9.118;2023-08-06T23:29:41;6.10;;;2.05;;
1154;SDS011;566;48.414;9.118;2023-08-06T23:32:07;4.35;;;2.00;;
1154;SDS011;566;48.414;9.118;2023-08-06T23:34:32;4.90;;;2.35;;
1154;SDS011;566;48.414;9.118;2023-08-06T23:36:58;4.70;;;2.00;;
1154;SDS011;566;48.414;9.118;2023-08-06T23:39:24;6.10;;;2.17;;
1154;SDS011;566;48.414;9.118;2023-08-06T23:41:49;4.10;;;2.00;;
1154;SDS011;566;48.414;9.118;2023-08-06T23:45:04;4.18;;;2.05;;
1154;SDS011;566;48.414;9.118;2023-08-06T23:47:51;3.22;;;1.70;;
1154;SDS011;566;48.414;9.118;2023-08-06T23:50:29;5.80;;;1.90;;
